Flight Track Log - Related Links

Times and Time Zones

All times are in EDT time to prevent confusion due to time zone crossing. See the N31532 flight status page for this flight to view local times or setup timezone preferences in your user account.

Time Position Orientation Groundspeed Altitude Reporting Facility
EDT Latitude Longitude Course Direction KTS MPH feet Rate Location/Type
Sun 10:17:56 AM 29.9128 -82.4492 North 120 138 3,500  Level Jacksonville Center
Sun 10:18:56 AM 29.9464 -82.4517 356° North 120 138 3,400 -50 Descending Jacksonville Center
Sun 10:19:56 AM 29.9797 -82.4539 357° North 120 138 3,400 50 Level Jacksonville Center
Sun 10:20:56 AM 30.0089 -82.4583 352° North 120 138 3,500 50 Climbing Jacksonville Center
Sun 10:21:56 AM 30.0403 -82.4583 360° North 120 138 3,500 50 Level Jacksonville Center
Sun 10:22:56 AM 30.0758 -82.4581 360° North 120 138 3,600 -50 Climbing Jacksonville Center
Sun 10:23:00 AM 29.8999 -82.4895 North  Level Estimated
Sun 10:23:56 AM 30.1072 -82.4556 North 120 138 3,400  Level Jacksonville Center
Sun 10:24:56 AM 30.1425 -82.4603 353° North 125 144 3,300 -100 Descending Jacksonville Center
Sun 10:25:56 AM 30.1761 -82.4625 357° North 120 138 3,200 -50 Descending Jacksonville Center
Sun 10:26:56 AM 30.2094 -82.4694 350° North 120 138 3,200  Level Jacksonville Center
Sun 10:27:56 AM 30.2428 -82.4789 346° North 120 138 3,200  Level Jacksonville Center
Sun 10:28:56 AM 30.2722 -82.4861 348° North 125 144 3,200  Level Jacksonville Center
Sun 10:29:56 AM 30.3056 -82.4931 350° North 125 144 3,200 50 Level Jacksonville Center
Sun 10:30:56 AM 30.3389 -82.4931 360° North 125 144 3,300  Climbing Jacksonville Center
Sun 10:31:56 AM 30.3725 -82.4928 360° North 125 144 3,200 -50 Descending Jacksonville Center
Sun 10:32:56 AM 30.4036 -82.5025 345° North 120 138 3,200 50 Level Jacksonville Center
Sun 10:33:56 AM 30.4350 -82.5094 349° North 120 138 3,300 50 Climbing Jacksonville Center
Sun 10:34:56 AM 30.4664 -82.5142 353° North 120 138 3,300  Level Jacksonville Center
Sun 10:35:56 AM 30.4978 -82.5261 342° North 120 138 3,300 50 Level Jacksonville Center
Sun 10:36:56 AM 30.5208 -82.5381 336° Northwest 120 138 3,400 50 Climbing Jacksonville Center
Sun 10:37:56 AM 30.5583 -82.5453 351° North 120 138 3,400  Level Jacksonville Center
Sun 10:38:56 AM 30.5897 -82.5500 353° North 114 131 3,400  Level Jacksonville Center
Sun 10:39:56 AM 30.6231 -82.5569 350° North 114 131 3,400  Level Jacksonville Center
Sun 10:40:56 AM 30.6564 -82.5594 356° North 114 131 3,400  Level Jacksonville Center
Sun 10:41:56 AM 30.6900 -82.5544 North 114 131 3,400  Level Jacksonville Center
Sun 10:42:56 AM 30.7211 -82.5592 353° North 114 131 3,400  Level Jacksonville Center
Sun 10:43:56 AM 30.7547 -82.5661 350° North 119 137 3,400  Level Jacksonville Center
Sun 10:44:56 AM 30.7861 -82.5614 North 119 137 3,400  Level Jacksonville Center
Sun 10:45:56 AM 30.8194 -82.5514 14° North 119 137 3,400  Level Jacksonville Center
Sun 10:46:56 AM 30.8508 -82.5539 356° North 119 137 3,400 50 Level Jacksonville Center
Sun 10:47:56 AM 30.8842 -82.5658 343° North 119 137 3,500 50 Climbing Jacksonville Center
Sun 10:48:56 AM 30.9175 -82.5753 346° North 124 143 3,500 -50 Level Jacksonville Center
Sun 10:49:56 AM 30.9508 -82.5703 North 124 143 3,400 -100 Descending Jacksonville Center
Sun 10:50:56 AM 30.9864 -82.5703 360° North 124 143 3,300 -100 Descending Jacksonville Center
Sun 10:51:56 AM 31.0178 -82.5678 North 124 143 3,200 -50 Descending Jacksonville Center
Sun 10:52:56 AM 31.0533 -82.5678 360° North 124 143 3,200  Level Jacksonville Center
Sun 10:53:56 AM 31.0844 -82.5628 North 124 143 3,200 50 Level Jacksonville Center
Sun 10:54:56 AM 31.1200 -82.5600 North 124 143 3,300 50 Climbing Jacksonville Center
Sun 10:55:56 AM 31.1533 -82.5550 North 124 143 3,300  Level Jacksonville Center
Sun 10:56:56 AM 31.1847 -82.5575 356° North 124 143 3,300  Level Jacksonville Center
Sun 10:57:56 AM 31.2181 -82.5622 353° North 124 143 3,300  Level Jacksonville Center
Sun 10:58:56 AM 31.2536 -82.5597 North 124 143 3,300 50 Level Jacksonville Center
Sun 10:59:56 AM 31.2831 -82.5619 356° North 124 143 3,400 150 Climbing Jacksonville Center
Sun 11:00:56 AM 31.3122 -82.5814 330° Northwest 119 137 3,600 250 Climbing Jacksonville Center
Sun 11:01:56 AM 31.3372 -82.6031 323° Northwest 114 131 3,900 350 Climbing Jacksonville Center
Sun 11:02:56 AM 31.3728 -82.6103 350° North 114 131 4,300 350 Climbing Jacksonville Center
Sun 11:03:56 AM 31.4019 -82.6175 348° North 109 125 4,600 300 Climbing Jacksonville Center
Sun 11:04:56 AM 31.4314 -82.6222 352° North 109 125 4,900 250 Climbing Jacksonville Center
Sun 11:05:56 AM 31.4586 -82.6392 332° Northwest 109 125 5,100 250 Climbing Jacksonville Center
Sun 11:06:56 AM 31.4836 -82.6586 326° Northwest 109 125 5,400 300 Climbing Jacksonville Center
Sun 11:07:56 AM 31.5108 -82.6733 335° Northwest 109 125 5,700 300 Climbing Jacksonville Center
Sun 11:08:56 AM 31.5400 -82.6756 356° North 104 120 6,000 250 Climbing Jacksonville Center
Sun 11:09:56 AM 31.5692 -82.6781 356° North 104 120 6,200 100 Climbing Jacksonville Center
Sun 11:10:56 AM 31.5983 -82.6900 341° North 104 120 6,200 50 Level Jacksonville Center
Sun 11:11:56 AM 31.6256 -82.7097 328° Northwest 110 127 6,300 50 Climbing Jacksonville Center
Sun 11:12:56 AM 31.6528 -82.7217 340° North 110 127 6,300  Level Jacksonville Center
Sun 11:13:56 AM 31.6800 -82.7436 326° Northwest 110 127 6,300  Level Jacksonville Center
Sun 11:14:56 AM 31.7092 -82.7508 348° North 110 127 6,300  Level Jacksonville Center
Sun 11:15:56 AM 31.7383 -82.7533 356° North 110 127 6,300  Level Jacksonville Center
Sun 11:16:56 AM 31.7678 -82.7656 341° North 105 121 6,300  Level Jacksonville Center
Sun 11:17:56 AM 31.7947 -82.7850 328° Northwest 111 128 6,300  Level Jacksonville Center
Sun 11:18:56 AM 31.8136 -82.8094 312° West 111 128 6,300  Level Jacksonville Center
Sun 11:19:56 AM 31.8428 -82.8167 348° North 105 121 6,300  Level Jacksonville Center
Sun 11:20:56 AM 31.8742 -82.8192 356° North 100 115 6,300  Level Jacksonville Center
Sun 11:21:56 AM 31.9056 -82.8239 353° North 106 122 6,300 -50 Level Jacksonville Center
Sun 11:22:56 AM 31.9328 -82.8436 328° Northwest 106 122 6,200 -50 Descending Jacksonville Center
Sun 11:23:56 AM 31.9597 -82.8633 328° Northwest 111 128 6,200  Level Jacksonville Center
Sun 11:24:56 AM 31.9892 -82.8756 341° North 111 128 6,200 -50 Level Jacksonville Center
Sun 11:25:56 AM 32.0203 -82.8828 349° North 111 128 6,100 -50 Descending Jacksonville Center
Sun 11:26:56 AM 32.0517 -82.8878 352° North 111 128 6,100 50 Level Jacksonville Center
Sun 11:27:56 AM 32.0831 -82.8925 353° North 106 122 6,200 50 Climbing Jacksonville Center
Sun 11:28:56 AM 32.1122 -82.9000 348° North 106 122 6,200 -50 Level Jacksonville Center
Sun 11:29:56 AM 32.1436 -82.9172 335° Northwest 106 122 6,100 -50 Descending Jacksonville Center
Sun 11:30:56 AM 32.1708 -82.9269 343° North 111 128 6,100  Level Jacksonville Center
Sun 11:32:35 AM 32.2333 -82.9500 343° North 114 131 6,100  Level Atlanta TRACON
Sun 11:33:35 AM 32.2500 -82.9667 320° Northwest 111 128 6,100 50 Level Atlanta TRACON
Sun 11:34:35 AM 32.2833 -82.9833 337° Northwest 110 127 6,200 100 Climbing Atlanta TRACON
Sun 11:35:35 AM 32.3000 -83.0000 320° Northwest 108 124 6,300 100 Climbing Atlanta TRACON
Sun 11:36:35 AM 32.3333 -83.0000 360° North 106 122 6,400 50 Climbing Atlanta TRACON
Sun 11:37:35 AM 32.3667 -83.0000 360° North 107 123 6,400  Level Atlanta TRACON
Sun 11:38:35 AM 32.3833 -83.0167 320° Northwest 104 120 6,400  Level Atlanta TRACON
Sun 11:39:35 AM 32.4167 -83.0333 337° Northwest 108 124 6,400 -50 Level Atlanta TRACON
Sun 11:40:35 AM 32.4500 -83.0333 360° North 108 124 6,300 -50 Descending Atlanta TRACON
Sun 11:41:35 AM 32.4833 -83.0333 360° North 108 124 6,300  Level Atlanta TRACON
Sun 11:42:35 AM 32.5000 -83.0500 320° Northwest 105 121 6,300  Level Atlanta TRACON
Sun 11:43:35 AM 32.5333 -83.0500 360° North 107 123 6,300  Level Atlanta TRACON
Sun 11:44:29 AM 32.5500 -83.0667 320° Northwest 107 123 6,300  Level Atlanta TRACON
Sun 11:45:35 AM 32.5833 -83.0833 337° Northwest 106 122 6,300  Level Atlanta TRACON
Sun 11:46:35 AM 32.6167 -83.1000 337° Northwest 104 120 6,300 -50 Level Atlanta TRACON
Sun 11:47:35 AM 32.6500 -83.1000 360° North 106 122 6,200 -53 Descending Atlanta TRACON
Sun 11:48:29 AM 32.6667 -83.1167 320° Northwest 107 123 6,200  Level Atlanta TRACON
Sun 11:49:29 AM 32.7000 -83.1333 337° Northwest 106 122 6,200  Level Atlanta TRACON
Sun 11:50:29 AM 32.7167 -83.1333 360° North 107 123 6,200 -50 Level Atlanta TRACON
Sun 11:51:29 AM 32.7500 -83.1333 360° North 106 122 6,100 -50 Descending Atlanta TRACON
Sun 11:52:29 AM 32.7833 -83.1500 337° Northwest 107 123 6,100 50 Level Atlanta TRACON
Sun 11:53:29 AM 32.8000 -83.1667 320° Northwest 105 121 6,200 50 Climbing Atlanta TRACON
Sun 11:54:29 AM 32.8333 -83.1667 360° North 108 124 6,200  Level Atlanta TRACON
Sun 11:55:29 AM 32.8667 -83.1833 337° Northwest 106 122 6,200  Level Atlanta TRACON
Sun 11:56:29 AM 32.8833 -83.2000 320° Northwest 106 122 6,200 50 Level Atlanta TRACON
Sun 11:57:29 AM 32.9167 -83.2167 337° Northwest 105 121 6,300 50 Climbing Atlanta TRACON
Sun 11:58:29 AM 32.9333 -83.2333 320° Northwest 105 121 6,300  Level Atlanta TRACON
Sun 11:59:29 AM 32.9667 -83.2500 337° Northwest 104 120 6,300  Level Atlanta TRACON
Sun 12:00:29 PM 33.0000 -83.2500 360° North 107 123 6,300  Level Atlanta TRACON
Sun 12:01:29 PM 33.0167 -83.2667 320° Northwest 105 121 6,300  Level Atlanta TRACON
Sun 12:02:29 PM 33.0500 -83.2833 337° Northwest 107 123 6,300 50 Level Atlanta TRACON
Sun 12:03:29 PM 33.0833 -83.2833 360° North 107 123 6,400 50 Climbing Atlanta TRACON
Sun 12:04:29 PM 33.1000 -83.3167 301° West 104 120 6,400  Level Atlanta TRACON
Sun 12:05:29 PM 33.1167 -83.3333 320° Northwest 107 123 6,400 -50 Level Atlanta TRACON
Sun 12:06:29 PM 33.1500 -83.3500 337° Northwest 110 127 6,300 -50 Descending Atlanta TRACON
Sun 12:07:29 PM 33.1833 -83.3500 360° North 111 128 6,300  Level Atlanta TRACON
Sun 12:08:29 PM 33.2000 -83.3667 320° Northwest 112 129 6,300 50 Level Atlanta TRACON
Sun 12:09:29 PM 33.2333 -83.4000 320° Northwest 115 132 6,400 50 Climbing Atlanta TRACON
Sun 12:10:29 PM 33.2667 -83.4000 360° North 109 125 6,400  Level Atlanta TRACON
Sun 12:11:29 PM 33.3000 -83.4167 337° Northwest 110 127 6,400  Level Atlanta TRACON
Sun 12:12:29 PM 33.3167 -83.4167 360° North 112 129 6,400  Level Atlanta TRACON
Sun 12:13:29 PM 33.3500 -83.4333 337° Northwest 110 127 6,400 -50 Level Atlanta TRACON
Sun 12:14:29 PM 33.3833 -83.4500 337° Northwest 113 130 6,300 -33 Descending Atlanta TRACON
Sun 12:16:29 PM 33.4333 -83.4667 344° North 112 129 6,300  Level Atlanta TRACON
Sun 12:18:29 PM 33.5000 -83.4833 348° North 112 129 6,300  Level Atlanta TRACON
Sun 12:19:29 PM 33.5333 -83.4833 360° North 113 130 6,300 50 Level Atlanta TRACON
Sun 12:20:29 PM 33.5500 -83.5000 320° Northwest 115 132 6,400 50 Climbing Atlanta TRACON
Sun 12:21:29 PM 33.5833 -83.5000 360° North 112 129 6,400 50 Level Atlanta TRACON
Sun 12:22:29 PM 33.6167 -83.5000 360° North 110 127 6,500 50 Climbing Atlanta TRACON
Sun 12:23:29 PM 33.6500 -83.5167 337° Northwest 107 123 6,500 -50 Level Atlanta TRACON
Sun 12:24:29 PM 33.6833 -83.5333 337° Northwest 113 130 6,400 -50 Descending Atlanta TRACON
Sun 12:25:29 PM 33.7000 -83.5333 360° North 113 130 6,400  Level Atlanta TRACON
Sun 12:26:29 PM 33.7333 -83.5500 337° Northwest 112 129 6,400 50 Level Atlanta TRACON
Sun 12:27:29 PM 33.7667 -83.5500 360° North 111 128 6,500 50 Climbing Atlanta TRACON
Sun 12:28:29 PM 33.8000 -83.5667 337° Northwest 107 123 6,500 50 Level Atlanta TRACON
Sun 12:29:29 PM 33.8167 -83.5667 360° North 106 122 6,600 250 Climbing Atlanta TRACON
Sun 12:30:29 PM 33.8500 -83.5833 337° Northwest 97 112 7,000 350 Climbing Atlanta TRACON
Sun 12:31:29 PM 33.8667 -83.6000 320° Northwest 99 114 7,300 300 Climbing Atlanta TRACON
Sun 12:32:29 PM 33.9000 -83.6333 320° Northwest 102 117 7,600 250 Climbing Atlanta TRACON
Sun 12:33:29 PM 33.9167 -83.6333 360° North 105 121 7,800 300 Climbing Atlanta TRACON
Sun 12:34:29 PM 33.9500 -83.6500 337° Northwest 109 125 8,200 200 Climbing Atlanta TRACON
Sun 12:35:29 PM 33.9833 -83.6667 337° Northwest 117 135 8,200 54 Level Atlanta TRACON
Sun 12:36:20 PM 34.0025 -83.6781 334° Northwest 122 140 8,300 54 Climbing Atlanta Center
Sun 12:37:20 PM 34.0317 -83.6903 341° North 123 142 8,300 -50 Level Atlanta Center
Sun 12:38:20 PM 34.0631 -83.7053 338° Northwest 123 142 8,200  Descending Atlanta Center
Sun 12:39:20 PM 34.0944 -83.7228 335° Northwest 123 142 8,300 -50 Climbing Atlanta Center
Sun 12:40:20 PM 34.1236 -83.7353 340° North 118 136 8,100 -150 Descending Atlanta Center
Sun 12:41:20 PM 34.1569 -83.7425 350° North 118 136 8,000  Descending Atlanta Center
Sun 12:42:20 PM 34.1883 -83.7525 345° North 112 129 8,100 150 Climbing Atlanta Center
Sun 12:43:20 PM 34.2156 -83.7650 339° North 106 122 8,300 150 Climbing Atlanta Center
Sun 12:44:20 PM 34.2447 -83.7825 334° Northwest 106 122 8,400 150 Climbing Atlanta Center
Sun 12:45:20 PM 34.2719 -83.7925 343° North 113 130 8,600 150 Climbing Atlanta Center
Sun 12:46:20 PM 34.3033 -83.7947 357° North 108 124 8,700  Climbing Atlanta Center
Sun 12:47:20 PM 34.3367 -83.8022 349° North 108 124 8,600 -400 Descending Atlanta Center
Sun 12:48:20 PM 34.3556 -83.8350 305° West 108 124 7,900 -900 Descending Atlanta Center
Sun 12:49:20 PM 34.3597 -83.8678 279° West 113 130 6,800 -950 Descending Atlanta Center
Sun 12:50:20 PM 34.3492 -83.8525 130° Southeast 49 56 6,000 -950 Descending Atlanta Center
Sun 12:51:20 PM 34.3744 -83.8728 326° Northwest 51 59 4,900 -1,050 Descending Atlanta Center
Sun 12:52:20 PM 34.4056 -83.8803 349° North 110 127 3,900 -650 Descending Atlanta Center
Sun 12:53:20 PM 34.4369 -83.8978 335° Northwest 120 138 3,600 -350 Descending Atlanta Center
Sun 12:54:20 PM 34.4642 -83.9128 336° Northwest 115 132 3,200 -200 Descending Atlanta Center
Sun 12:55:20 PM 34.4933 -83.9228 344° North 109 125 3,200 100 Level Atlanta Center
Sun 12:56:20 PM 34.5206 -83.9406 332° Northwest 109 125 3,400 300 Climbing Atlanta Center
Sun 12:57:20 PM 34.5436 -83.9631 321° Northwest 109 125 3,800 250 Climbing Atlanta Center
Sun 12:58:20 PM 34.5686 -83.9883 320° Northwest 109 125 3,900 100 Climbing Atlanta Center
Sun 12:59:20 PM 34.5997 -83.9858 North 109 125 4,000 150 Climbing Atlanta Center
Sun 01:00:20 PM 34.6311 -83.9833 North 109 125 4,200 150 Climbing Atlanta Center
Sun 01:01:20 PM 34.6603 -83.9833 360° North 114 131 4,300  Climbing Atlanta Center
Sun 01:02:20 PM 34.7000 -83.9831 360° North 119 137 4,200 50 Descending Atlanta Center
Sun 01:03:20 PM 34.7333 -83.9831 360° North 124 143 4,400 100 Climbing Atlanta Center
Sun 01:04:20 PM 34.7689 -83.9806 North 119 137 4,400  Level Atlanta Center

Login

Don't have an account? Register now (free) for customized features, flight alerts, and more!